createdAt,value
2019-05-19T00:01:54.522Z,28.07
2019-05-19T00:04:58.773Z,31.20
2019-05-19T00:08:03.270Z,32.20
2019-05-19T00:11:07.635Z,31.05
2019-05-19T00:14:12.021Z,31.23
2019-05-19T00:17:16.294Z,29.82
2019-05-19T00:20:20.534Z,27.65
2019-05-19T00:23:24.727Z,31.80
2019-05-19T00:26:29.074Z,33.28
2019-05-19T00:29:33.420Z,40.70
2019-05-19T00:32:37.755Z,38.50
2019-05-19T00:35:42.032Z,43.00
2019-05-19T00:38:46.435Z,49.00
2019-05-19T00:41:50.739Z,41.08
2019-05-19T00:44:55.144Z,64.47
2019-05-19T00:47:59.404Z,59.73
2019-05-19T00:51:03.825Z,66.28
2019-05-19T00:54:08.139Z,57.65
2019-05-19T00:57:13.642Z,68.28
2019-05-19T01:00:18.687Z,76.22
2019-05-19T01:03:23.067Z,72.35
2019-05-19T01:06:27.380Z,73.92
2019-05-19T01:09:31.672Z,81.30
2019-05-19T01:12:35.971Z,97.00
2019-05-19T01:15:40.342Z,98.15
2019-05-19T01:18:44.707Z,97.85
2019-05-19T01:21:50.258Z,94.07
2019-05-19T01:24:54.546Z,109.80
2019-05-19T01:27:58.858Z,105.52
2019-05-19T01:31:03.042Z,117.33
2019-05-19T01:34:07.455Z,127.12
2019-05-19T01:37:11.656Z,133.55
2019-05-19T01:40:16.013Z,127.02
2019-05-19T01:43:20.304Z,124.50
2019-05-19T01:46:24.716Z,139.22
2019-05-19T01:49:28.994Z,143.52
2019-05-19T01:52:33.469Z,147.62
2019-05-19T01:55:37.738Z,140.62
2019-05-19T01:58:42.005Z,131.78
2019-05-19T02:01:46.305Z,137.22
2019-05-19T02:04:50.794Z,134.78
2019-05-19T02:07:55.057Z,137.77
2019-05-19T02:10:59.320Z,131.65
2019-05-19T02:14:04.025Z,133.03
2019-05-19T02:17:08.348Z,137.15
2019-05-19T02:20:12.886Z,133.05
2019-05-19T02:23:17.242Z,138.35
2019-05-19T02:26:21.440Z,142.28
2019-05-19T02:29:25.719Z,137.70
2019-05-19T02:32:29.921Z,135.10
2019-05-19T02:35:34.235Z,137.75
2019-05-19T02:38:38.492Z,149.93
2019-05-19T02:41:45.394Z,141.45
2019-05-19T02:44:50.942Z,135.28
2019-05-19T02:47:55.376Z,134.55
2019-05-19T02:51:02.177Z,120.97
2019-05-19T02:54:07.184Z,121.02
2019-05-19T02:57:11.773Z,134.20
2019-05-19T03:00:16.313Z,153.95
2019-05-19T03:03:20.718Z,162.85
2019-05-19T03:06:25.129Z,162.95
2019-05-19T03:09:29.494Z,161.32
2019-05-19T03:12:33.850Z,171.65
2019-05-19T03:15:38.111Z,159.27
2019-05-19T03:18:42.451Z,177.87
2019-05-19T03:21:46.824Z,162.00
2019-05-19T03:24:51.221Z,158.78
2019-05-19T03:27:55.663Z,156.67
2019-05-19T03:31:10.447Z,154.27
2019-05-19T03:34:15.029Z,166.22
2019-05-19T03:37:19.284Z,174.75
2019-05-19T03:40:23.634Z,158.75
2019-05-19T03:43:27.918Z,164.03
2019-05-19T03:46:32.273Z,162.27
2019-05-19T03:49:36.597Z,157.60
2019-05-19T03:52:40.888Z,176.78
2019-05-19T03:55:45.185Z,176.53
2019-05-19T03:58:49.467Z,182.90
2019-05-19T04:01:53.815Z,166.43
2019-05-19T04:04:58.140Z,184.40
2019-05-19T04:08:02.541Z,180.15
2019-05-19T04:11:06.807Z,174.82
2019-05-19T04:14:11.146Z,197.40
2019-05-19T04:17:15.442Z,175.95
2019-05-19T04:20:19.857Z,179.15
2019-05-19T04:23:24.166Z,176.30
2019-05-19T04:26:28.549Z,172.22
2019-05-19T04:29:32.804Z,161.18
2019-05-19T04:32:37.137Z,172.78
2019-05-19T04:35:41.469Z,178.15
2019-05-19T04:38:45.831Z,178.82
2019-05-19T04:41:50.237Z,173.05
2019-05-19T04:44:54.584Z,178.57
2019-05-19T04:47:58.824Z,196.37
2019-05-19T04:51:05.042Z,175.12
2019-05-19T04:54:09.418Z,172.28
2019-05-19T04:57:13.800Z,179.42
2019-05-19T05:00:18.068Z,173.78
2019-05-19T05:03:22.479Z,171.22
2019-05-19T05:06:26.873Z,185.48
2019-05-19T05:09:31.291Z,166.55
2019-05-19T05:12:35.660Z,183.30
2019-05-19T05:15:39.919Z,192.72
2019-05-19T05:18:44.113Z,198.78
2019-05-19T05:21:48.512Z,206.20
2019-05-19T05:24:52.821Z,199.40
2019-05-19T05:27:57.121Z,216.40
2019-05-19T05:31:01.433Z,200.43
2019-05-19T05:34:05.752Z,223.18
2019-05-19T05:37:10.294Z,229.97
2019-05-19T05:40:14.654Z,225.25
2019-05-19T05:43:19.027Z,217.53
2019-05-19T05:46:23.270Z,200.93
2019-05-19T05:49:27.491Z,218.17
2019-05-19T05:52:38.539Z,214.02
2019-05-19T05:55:38.682Z,257.37
2019-05-19T05:58:42.939Z,222.20
2019-05-19T06:01:47.190Z,226.45
2019-05-19T06:04:51.714Z,267.20
2019-05-19T06:07:56.343Z,223.62
2019-05-19T06:11:00.697Z,230.20
2019-05-19T06:14:05.038Z,242.68
2019-05-19T06:17:14.187Z,249.32
2019-05-19T06:20:18.636Z,222.00
2019-05-19T06:23:22.983Z,237.48
2019-05-19T06:26:27.215Z,233.43
2019-05-19T06:29:31.552Z,257.65
2019-05-19T06:32:41.256Z,250.03
2019-05-19T06:35:45.647Z,256.77
2019-05-19T06:38:49.923Z,233.43
2019-05-19T06:41:54.343Z,241.48
2019-05-19T06:44:58.633Z,250.70
2019-05-19T06:48:02.864Z,262.70
2019-05-19T06:51:07.161Z,246.77
2019-05-19T06:54:11.527Z,257.15
2019-05-19T06:57:15.828Z,233.45
2019-05-19T07:00:21.164Z,239.55
2019-05-19T07:03:25.460Z,226.60
2019-05-19T07:06:29.706Z,225.90
2019-05-19T07:09:34.062Z,236.75
2019-05-19T07:12:38.416Z,228.42
2019-05-19T07:15:42.705Z,226.10
2019-05-19T07:18:46.944Z,238.55
2019-05-19T07:21:51.316Z,208.93
2019-05-19T07:24:55.558Z,202.87
2019-05-19T07:27:59.766Z,212.93
2019-05-19T07:31:04.077Z,216.90
2019-05-19T07:34:08.407Z,210.13
2019-05-19T07:37:12.700Z,216.53
2019-05-19T07:40:17.053Z,205.30
2019-05-19T07:43:21.461Z,196.53
2019-05-19T07:46:25.863Z,200.72
2019-05-19T07:49:30.298Z,193.55
2019-05-19T07:52:34.784Z,174.15
2019-05-19T07:55:39.297Z,181.32
2019-05-19T07:58:43.566Z,177.95
2019-05-19T08:01:47.875Z,179.47
2019-05-19T08:04:52.158Z,181.22
2019-05-19T08:07:56.457Z,181.47
2019-05-19T08:11:00.712Z,172.45
2019-05-19T08:14:05.022Z,169.70
2019-05-19T08:17:09.212Z,168.65
2019-05-19T08:20:14.373Z,171.90
2019-05-19T08:23:18.715Z,159.63
2019-05-19T08:26:23.074Z,167.45
2019-05-19T08:29:27.353Z,163.40
2019-05-19T08:32:31.690Z,153.53
2019-05-19T08:35:36.051Z,151.93
2019-05-19T08:38:40.396Z,155.15
2019-05-19T08:41:44.667Z,151.90
2019-05-19T08:44:49.047Z,153.40
2019-05-19T08:47:53.340Z,139.62
2019-05-19T08:50:57.678Z,136.10
2019-05-19T08:54:13.781Z,136.55
2019-05-19T08:57:07.920Z,142.25
2019-05-19T09:00:12.280Z,148.78
2019-05-19T09:03:16.519Z,155.40
2019-05-19T09:06:20.940Z,143.68
2019-05-19T09:09:25.363Z,152.12
2019-05-19T09:12:29.643Z,142.90
2019-05-19T09:15:34.390Z,146.70
2019-05-19T09:18:38.954Z,146.57
2019-05-19T09:21:43.237Z,160.03
2019-05-19T09:24:47.528Z,143.75
2019-05-19T09:27:51.872Z,152.35
2019-05-19T09:30:56.089Z,158.87
2019-05-19T09:34:00.341Z,164.65
2019-05-19T09:37:04.607Z,165.55
2019-05-19T09:40:09.367Z,156.20
2019-05-19T09:43:13.719Z,163.30
2019-05-19T09:46:18.082Z,165.55
2019-05-19T09:49:35.585Z,155.95
2019-05-19T09:52:40.009Z,151.80
2019-05-19T09:55:44.321Z,156.50
2019-05-19T09:58:48.698Z,145.75
2019-05-19T10:01:53.051Z,152.27
2019-05-19T10:04:57.453Z,148.30
2019-05-19T10:08:01.751Z,143.52
2019-05-19T10:11:48.585Z,145.17
2019-05-19T10:14:52.843Z,143.50
2019-05-19T10:17:57.288Z,136.50
2019-05-19T10:21:01.911Z,128.45
2019-05-19T10:24:06.195Z,133.32
2019-05-19T10:27:10.481Z,130.40
2019-05-19T10:30:16.515Z,138.37
2019-05-19T10:33:20.806Z,133.50
2019-05-19T10:36:25.168Z,131.90
2019-05-19T10:39:29.373Z,135.45
2019-05-19T10:42:33.710Z,134.55
2019-05-19T10:45:39.651Z,132.27
2019-05-19T10:48:43.904Z,124.75
2019-05-19T10:51:48.712Z,126.42
2019-05-19T10:54:53.343Z,124.65
2019-05-19T10:57:57.872Z,117.67
2019-05-19T11:01:02.179Z,122.95
2019-05-19T11:04:06.477Z,120.87
2019-05-19T11:07:10.904Z,120.80
2019-05-19T11:10:17.371Z,118.53
2019-05-19T11:13:22.513Z,117.97
2019-05-19T11:16:26.738Z,124.85
2019-05-19T11:19:30.991Z,112.45
2019-05-19T11:22:35.492Z,115.42
2019-05-19T11:25:51.091Z,117.05
2019-05-19T11:28:45.971Z,113.22
2019-05-19T11:31:50.293Z,109.72
2019-05-19T11:34:54.574Z,110.75
2019-05-19T11:37:58.986Z,106.07
2019-05-19T11:41:03.262Z,108.37
2019-05-19T11:44:07.711Z,105.45
2019-05-19T11:47:12.010Z,105.95
2019-05-19T11:50:16.376Z,104.43
2019-05-19T11:53:20.709Z,106.22
2019-05-19T11:56:25.028Z,106.47
2019-05-19T11:59:29.388Z,104.67
2019-05-19T12:02:33.728Z,99.52
2019-05-19T12:05:38.043Z,98.03
2019-05-19T12:08:42.325Z,91.63
2019-05-19T12:11:46.621Z,89.00
2019-05-19T12:14:53.912Z,93.10
2019-05-19T12:17:58.180Z,89.42
2019-05-19T12:21:02.617Z,84.03
2019-05-19T12:24:06.919Z,87.85
2019-05-19T12:27:11.169Z,81.28
2019-05-19T12:30:19.609Z,81.28
2019-05-19T12:33:23.972Z,79.07
2019-05-19T12:36:28.254Z,76.62
2019-05-19T12:39:32.623Z,74.62
2019-05-19T12:42:36.936Z,77.80
2019-05-19T12:45:41.306Z,76.22
2019-05-19T12:48:45.572Z,79.82
2019-05-19T12:51:49.831Z,82.78
2019-05-19T12:54:54.234Z,85.03
2019-05-19T12:57:58.533Z,77.08
2019-05-19T13:01:02.912Z,75.25
2019-05-19T13:04:07.240Z,78.10
2019-05-19T13:07:11.581Z,76.33
2019-05-19T13:10:16.428Z,77.05
2019-05-19T13:13:20.776Z,81.53
2019-05-19T13:16:25.088Z,75.42
2019-05-19T13:19:29.403Z,77.25
2019-05-19T13:22:33.672Z,79.45
2019-05-19T13:25:38.019Z,78.60
2019-05-19T13:28:42.332Z,76.02
2019-05-19T13:31:46.680Z,78.55
2019-05-19T13:34:50.925Z,72.12
2019-05-19T13:37:55.258Z,75.32
2019-05-19T13:40:59.610Z,73.12
2019-05-19T13:44:03.944Z,74.77
2019-05-19T13:47:08.276Z,73.45
2019-05-19T13:50:13.235Z,76.35
2019-05-19T13:53:17.532Z,71.85
2019-05-19T13:56:21.954Z,73.62
2019-05-19T13:59:26.366Z,74.15
2019-05-19T14:02:30.605Z,68.30
2019-05-19T14:05:34.984Z,68.07
2019-05-19T14:08:39.401Z,70.37
2019-05-19T14:11:43.674Z,66.95
2019-05-19T14:14:48.135Z,63.42
2019-05-19T14:17:52.530Z,67.42
2019-05-19T14:20:56.732Z,63.40
2019-05-19T14:24:01.147Z,67.05
2019-05-19T14:27:05.412Z,68.40
2019-05-19T14:30:10.047Z,62.40
2019-05-19T14:33:14.583Z,63.50
2019-05-19T14:36:19.056Z,59.75
2019-05-19T14:39:23.402Z,50.78
2019-05-19T14:43:01.846Z,45.03
2019-05-19T14:46:06.223Z,36.90
2019-05-19T14:49:10.682Z,44.70
2019-05-19T14:52:15.125Z,35.92
2019-05-19T14:55:19.556Z,24.63
2019-05-19T14:58:23.904Z,18.05
2019-05-19T15:01:28.291Z,14.87
2019-05-19T15:04:32.612Z,13.98
2019-05-19T15:07:36.868Z,13.75
2019-05-19T15:10:41.123Z,14.43
2019-05-19T15:13:45.526Z,14.93
2019-05-19T15:16:49.756Z,14.13
2019-05-19T15:19:53.977Z,9.83
2019-05-19T15:22:58.341Z,17.40
2019-05-19T15:26:02.595Z,40.52
2019-05-19T15:29:06.845Z,48.42
2019-05-19T15:32:11.216Z,47.00
2019-05-19T15:35:15.589Z,35.23
2019-05-19T15:38:19.916Z,30.68
2019-05-19T15:41:24.210Z,34.53
2019-05-19T15:44:28.587Z,30.80
2019-05-19T15:47:32.873Z,26.93
2019-05-19T15:50:37.178Z,15.75
2019-05-19T15:53:41.532Z,9.15
2019-05-19T15:56:45.877Z,13.48
2019-05-19T15:59:50.085Z,10.43
2019-05-19T16:02:54.538Z,8.38
2019-05-19T16:05:58.797Z,8.05
2019-05-19T16:09:03.191Z,7.20
2019-05-19T16:12:07.471Z,9.60
2019-05-19T16:15:12.122Z,9.65
2019-05-19T16:18:16.382Z,7.67
2019-05-19T16:21:20.796Z,8.90
2019-05-19T16:24:25.026Z,6.95
2019-05-19T16:27:29.410Z,7.72
2019-05-19T16:30:33.615Z,5.80
2019-05-19T16:33:37.867Z,7.42
2019-05-19T16:36:42.142Z,6.53
2019-05-19T16:39:46.522Z,6.85
2019-05-19T16:42:50.962Z,5.78
2019-05-19T16:45:55.429Z,8.68
2019-05-19T16:48:59.646Z,4.83
2019-05-19T16:52:03.879Z,4.92
2019-05-19T16:55:26.216Z,5.58
2019-05-19T16:58:44.129Z,5.92
2019-05-19T17:01:36.607Z,6.28
2019-05-19T17:04:40.873Z,7.58
2019-05-19T17:07:45.120Z,6.95
2019-05-19T17:10:49.366Z,9.38
2019-05-19T17:13:53.645Z,9.45
2019-05-19T17:16:58.102Z,9.28
2019-05-19T17:20:02.307Z,9.85
2019-05-19T17:23:06.640Z,8.23
2019-05-19T17:26:11.015Z,12.33
2019-05-19T17:29:15.346Z,12.15
2019-05-19T17:32:19.598Z,13.00
2019-05-19T17:35:24.005Z,18.02
2019-05-19T17:38:28.333Z,21.55
2019-05-19T17:41:32.793Z,26.75
2019-05-19T17:44:37.004Z,19.90
2019-05-19T17:47:41.430Z,23.18
2019-05-19T17:50:45.737Z,25.70
2019-05-19T17:53:50.007Z,44.05
2019-05-19T17:56:54.806Z,39.10
2019-05-19T17:59:59.613Z,72.65
2019-05-19T18:03:03.991Z,71.40
2019-05-19T18:06:08.402Z,103.12
2019-05-19T18:09:12.698Z,106.32
2019-05-19T18:12:16.996Z,125.25
2019-05-19T18:15:21.268Z,120.67
2019-05-19T18:18:25.581Z,120.62
2019-05-19T18:21:29.880Z,130.80
2019-05-19T18:24:34.233Z,134.27
2019-05-19T18:27:38.547Z,155.72
2019-05-19T18:30:42.931Z,135.15
2019-05-19T18:33:47.281Z,145.47
2019-05-19T18:36:51.687Z,155.82
2019-05-19T18:39:56.012Z,147.50
2019-05-19T18:43:00.280Z,150.00
2019-05-19T18:46:04.645Z,157.78
2019-05-19T18:49:08.983Z,151.40
2019-05-19T18:52:13.255Z,155.65
2019-05-19T18:55:17.598Z,165.62
2019-05-19T18:58:21.914Z,166.43
2019-05-19T19:01:26.322Z,154.12
2019-05-19T19:04:30.558Z,166.82
2019-05-19T19:07:49.365Z,167.90
2019-05-19T19:10:53.578Z,164.20
2019-05-19T19:13:57.897Z,168.65
2019-05-19T19:17:02.249Z,166.73
2019-05-19T19:20:07.093Z,172.55
2019-05-19T19:23:11.382Z,173.40
2019-05-19T19:26:15.700Z,160.28
2019-05-19T19:29:19.935Z,168.78
2019-05-19T19:32:24.264Z,193.32
2019-05-19T19:35:38.344Z,175.80
2019-05-19T19:38:34.556Z,184.28
2019-05-19T19:41:44.788Z,183.85
2019-05-19T19:44:49.240Z,186.28
2019-05-19T19:47:53.621Z,196.28
2019-05-19T19:50:57.973Z,188.85
2019-05-19T19:54:02.353Z,197.55
2019-05-19T19:57:06.679Z,197.37
2019-05-19T20:00:18.450Z,200.53
2019-05-19T20:03:17.481Z,214.68
2019-05-19T20:06:21.881Z,234.30
2019-05-19T20:09:26.299Z,224.45
2019-05-19T20:12:30.593Z,232.55
2019-05-19T20:15:35.318Z,243.60
2019-05-19T20:18:39.591Z,242.50
2019-05-19T20:21:43.909Z,240.60
2019-05-19T20:24:48.287Z,248.35
2019-05-19T20:27:52.606Z,239.82
2019-05-19T20:30:56.876Z,241.73
2019-05-19T20:34:01.167Z,231.32
2019-05-19T20:37:05.382Z,241.20
2019-05-19T20:40:10.174Z,232.10
2019-05-19T20:43:14.500Z,225.85
2019-05-19T20:46:18.881Z,228.95
2019-05-19T20:49:23.288Z,221.45
2019-05-19T20:52:27.627Z,216.73
2019-05-19T20:55:31.911Z,218.40
2019-05-19T20:58:36.271Z,202.43
2019-05-19T21:01:40.522Z,211.60
2019-05-19T21:04:44.939Z,211.95
2019-05-19T21:07:49.246Z,207.03
2019-05-19T21:10:53.642Z,207.50
2019-05-19T21:13:57.995Z,223.03
2019-05-19T21:17:02.315Z,234.15
2019-05-19T21:20:06.677Z,203.07
2019-05-19T21:23:11.034Z,174.23
2019-05-19T21:26:15.277Z,210.72
2019-05-19T21:29:19.603Z,170.00
2019-05-19T21:32:23.941Z,201.10
2019-05-19T21:35:28.310Z,194.62
2019-05-19T21:38:32.594Z,204.97
2019-05-19T21:41:37.017Z,181.65
2019-05-19T21:44:41.230Z,185.10
2019-05-19T21:47:45.549Z,179.18
2019-05-19T21:50:49.904Z,181.65
2019-05-19T21:53:54.264Z,165.95
2019-05-19T21:56:58.541Z,175.30
2019-05-19T22:00:02.880Z,189.28
2019-05-19T22:03:07.269Z,183.20
2019-05-19T22:06:11.594Z,186.40
2019-05-19T22:09:15.890Z,187.95
2019-05-19T22:12:20.242Z,176.87
2019-05-19T22:15:24.622Z,195.97
2019-05-19T22:18:28.946Z,186.35
2019-05-19T22:21:33.155Z,186.35
2019-05-19T22:24:40.621Z,198.78
2019-05-19T22:27:44.845Z,186.75
2019-05-19T22:30:49.264Z,204.82
2019-05-19T22:33:53.529Z,188.87
2019-05-19T22:36:57.768Z,205.62
2019-05-19T22:40:02.184Z,205.62
2019-05-19T22:43:06.553Z,208.15
2019-05-19T22:46:10.998Z,198.40
2019-05-19T22:49:15.236Z,224.45
2019-05-19T22:52:19.517Z,224.22
2019-05-19T22:55:23.864Z,220.00
2019-05-19T22:58:28.137Z,234.50
2019-05-19T23:01:32.444Z,249.50
2019-05-19T23:04:36.837Z,247.20
2019-05-19T23:07:41.250Z,243.05
2019-05-19T23:10:45.530Z,278.20
2019-05-19T23:13:49.803Z,271.32
2019-05-19T23:16:54.131Z,248.15
2019-05-19T23:19:58.504Z,284.20
2019-05-19T23:23:02.771Z,266.82
2019-05-19T23:26:09.746Z,275.13
2019-05-19T23:29:13.961Z,252.10
2019-05-19T23:32:18.344Z,232.18
2019-05-19T23:35:22.627Z,262.70
2019-05-19T23:38:26.886Z,264.38
2019-05-19T23:41:31.197Z,250.32
2019-05-19T23:44:35.496Z,255.07
2019-05-19T23:47:39.708Z,241.97
2019-05-19T23:50:44.105Z,249.05
2019-05-19T23:53:48.400Z,230.52
2019-05-19T23:56:52.744Z,222.58
2019-05-19T23:59:56.960Z,217.43
